sensor_id;sensor_type;location;lat;lon;timestamp;P1;durP1;ratioP1;P2;durP2;ratioP2
22644;SDS011;11489;50.834;6.752;2022-12-18T00:00:39;39.17;;;16.47;;
22644;SDS011;11489;50.834;6.752;2022-12-18T00:03:05;41.23;;;16.83;;
22644;SDS011;11489;50.834;6.752;2022-12-18T00:05:31;39.87;;;15.43;;
22644;SDS011;11489;50.834;6.752;2022-12-18T00:07:57;37.30;;;15.60;;
22644;SDS011;11489;50.834;6.752;2022-12-18T00:10:22;38.77;;;15.53;;
22644;SDS011;11489;50.834;6.752;2022-12-18T00:12:48;39.47;;;15.33;;
22644;SDS011;11489;50.834;6.752;2022-12-18T00:15:13;40.47;;;15.63;;
22644;SDS011;11489;50.834;6.752;2022-12-18T00:17:39;37.87;;;16.17;;
22644;SDS011;11489;50.834;6.752;2022-12-18T00:20:05;42.30;;;16.53;;
22644;SDS011;11489;50.834;6.752;2022-12-18T00:22:31;39.43;;;15.00;;
22644;SDS011;11489;50.834;6.752;2022-12-18T00:24:57;42.67;;;16.07;;
22644;SDS011;11489;50.834;6.752;2022-12-18T00:27:22;41.97;;;15.70;;
22644;SDS011;11489;50.834;6.752;2022-12-18T00:29:48;40.20;;;15.40;;
22644;SDS011;11489;50.834;6.752;2022-12-18T00:32:14;34.87;;;14.77;;
22644;SDS011;11489;50.834;6.752;2022-12-18T00:34:39;31.60;;;14.53;;
22644;SDS011;11489;50.834;6.752;2022-12-18T00:37:05;32.30;;;13.97;;
22644;SDS011;11489;50.834;6.752;2022-12-18T00:39:31;39.87;;;15.27;;
22644;SDS011;11489;50.834;6.752;2022-12-18T00:41:56;35.23;;;13.60;;
22644;SDS011;11489;50.834;6.752;2022-12-18T00:44:40;33.83;;;14.20;;
22644;SDS011;11489;50.834;6.752;2022-12-18T00:47:06;34.50;;;14.17;;
22644;SDS011;11489;50.834;6.752;2022-12-18T00:49:32;38.80;;;13.83;;
22644;SDS011;11489;50.834;6.752;2022-12-18T00:51:57;38.33;;;14.30;;
22644;SDS011;11489;50.834;6.752;2022-12-18T00:54:23;32.50;;;13.77;;
22644;SDS011;11489;50.834;6.752;2022-12-18T00:56:49;35.13;;;14.60;;
22644;SDS011;11489;50.834;6.752;2022-12-18T00:59:15;37.70;;;15.00;;
22644;SDS011;11489;50.834;6.752;2022-12-18T01:01:41;34.30;;;13.93;;
22644;SDS011;11489;50.834;6.752;2022-12-18T01:04:07;36.33;;;14.83;;
22644;SDS011;11489;50.834;6.752;2022-12-18T01:06:34;37.07;;;14.33;;
22644;SDS011;11489;50.834;6.752;2022-12-18T01:09:00;32.10;;;13.13;;
22644;SDS011;11489;50.834;6.752;2022-12-18T01:11:26;34.77;;;14.97;;
22644;SDS011;11489;50.834;6.752;2022-12-18T01:13:53;35.97;;;14.97;;
22644;SDS011;11489;50.834;6.752;2022-12-18T01:16:19;41.40;;;15.37;;
22644;SDS011;11489;50.834;6.752;2022-12-18T01:18:45;40.17;;;15.20;;
22644;SDS011;11489;50.834;6.752;2022-12-18T01:21:12;35.97;;;14.17;;
22644;SDS011;11489;50.834;6.752;2022-12-18T01:23:39;36.53;;;14.00;;
22644;SDS011;11489;50.834;6.752;2022-12-18T01:26:06;36.47;;;14.50;;
22644;SDS011;11489;50.834;6.752;2022-12-18T01:28:34;35.30;;;14.20;;
22644;SDS011;11489;50.834;6.752;2022-12-18T01:34:00;38.67;;;14.57;;
22644;SDS011;11489;50.834;6.752;2022-12-18T01:36:33;37.53;;;14.43;;
22644;SDS011;11489;50.834;6.752;2022-12-18T01:39:05;34.27;;;14.50;;
22644;SDS011;11489;50.834;6.752;2022-12-18T01:41:32;36.20;;;13.93;;
22644;SDS011;11489;50.834;6.752;2022-12-18T01:47:18;38.63;;;14.47;;
22644;SDS011;11489;50.834;6.752;2022-12-18T01:49:46;32.43;;;13.70;;
22644;SDS011;11489;50.834;6.752;2022-12-18T01:52:12;34.40;;;13.87;;
22644;SDS011;11489;50.834;6.752;2022-12-18T01:54:38;37.90;;;14.67;;
22644;SDS011;11489;50.834;6.752;2022-12-18T01:57:04;38.57;;;15.13;;
22644;SDS011;11489;50.834;6.752;2022-12-18T01:59:31;38.30;;;15.60;;
22644;SDS011;11489;50.834;6.752;2022-12-18T02:01:58;37.40;;;14.17;;
22644;SDS011;11489;50.834;6.752;2022-12-18T02:04:25;36.47;;;14.50;;
22644;SDS011;11489;50.834;6.752;2022-12-18T02:06:55;35.07;;;14.90;;
22644;SDS011;11489;50.834;6.752;2022-12-18T02:09:30;35.43;;;14.97;;
22644;SDS011;11489;50.834;6.752;2022-12-18T02:12:05;38.27;;;14.47;;
22644;SDS011;11489;50.834;6.752;2022-12-18T02:14:40;34.90;;;14.40;;
22644;SDS011;11489;50.834;6.752;2022-12-18T02:17:18;35.23;;;14.97;;
22644;SDS011;11489;50.834;6.752;2022-12-18T02:20:01;34.73;;;14.10;;
22644;SDS011;11489;50.834;6.752;2022-12-18T02:25:51;33.60;;;14.37;;
22644;SDS011;11489;50.834;6.752;2022-12-18T02:28:23;36.67;;;14.67;;
22644;SDS011;11489;50.834;6.752;2022-12-18T02:30:53;38.70;;;14.87;;
22644;SDS011;11489;50.834;6.752;2022-12-18T02:33:25;39.17;;;15.70;;
22644;SDS011;11489;50.834;6.752;2022-12-18T02:35:52;36.20;;;14.10;;
22644;SDS011;11489;50.834;6.752;2022-12-18T02:38:20;37.03;;;14.77;;
22644;SDS011;11489;50.834;6.752;2022-12-18T02:40:46;39.47;;;14.87;;
22644;SDS011;11489;50.834;6.752;2022-12-18T02:43:14;36.27;;;14.93;;
22644;SDS011;11489;50.834;6.752;2022-12-18T02:45:52;36.13;;;14.93;;
22644;SDS011;11489;50.834;6.752;2022-12-18T02:48:22;33.23;;;13.77;;
22644;SDS011;11489;50.834;6.752;2022-12-18T02:51:04;35.13;;;14.43;;
22644;SDS011;11489;50.834;6.752;2022-12-18T02:56:20;32.90;;;14.37;;
22644;SDS011;11489;50.834;6.752;2022-12-18T02:59:02;40.30;;;15.10;;
22644;SDS011;11489;50.834;6.752;2022-12-18T03:01:57;32.57;;;14.27;;
22644;SDS011;11489;50.834;6.752;2022-12-18T03:07:04;35.03;;;14.13;;
22644;SDS011;11489;50.834;6.752;2022-12-18T03:09:35;40.60;;;15.77;;
22644;SDS011;11489;50.834;6.752;2022-12-18T03:12:07;36.87;;;14.40;;
22644;SDS011;11489;50.834;6.752;2022-12-18T03:17:33;38.57;;;15.00;;
22644;SDS011;11489;50.834;6.752;2022-12-18T03:20:03;40.57;;;14.63;;
22644;SDS011;11489;50.834;6.752;2022-12-18T03:22:38;34.27;;;14.00;;
22644;SDS011;11489;50.834;6.752;2022-12-18T03:25:07;37.90;;;15.27;;
22644;SDS011;11489;50.834;6.752;2022-12-18T03:27:36;35.50;;;14.60;;
22644;SDS011;11489;50.834;6.752;2022-12-18T03:30:07;37.27;;;15.03;;
22644;SDS011;11489;50.834;6.752;2022-12-18T03:32:41;30.57;;;14.20;;
22644;SDS011;11489;50.834;6.752;2022-12-18T03:35:14;41.23;;;15.30;;
22644;SDS011;11489;50.834;6.752;2022-12-18T03:37:45;38.60;;;15.33;;
22644;SDS011;11489;50.834;6.752;2022-12-18T03:40:11;39.40;;;14.70;;
22644;SDS011;11489;50.834;6.752;2022-12-18T03:45:13;40.60;;;15.93;;
22644;SDS011;11489;50.834;6.752;2022-12-18T03:48:00;41.37;;;14.30;;
22644;SDS011;11489;50.834;6.752;2022-12-18T03:55:33;37.57;;;15.23;;
22644;SDS011;11489;50.834;6.752;2022-12-18T03:58:01;35.90;;;14.73;;
22644;SDS011;11489;50.834;6.752;2022-12-18T04:00:28;39.17;;;15.00;;
22644;SDS011;11489;50.834;6.752;2022-12-18T04:02:55;37.53;;;14.77;;
22644;SDS011;11489;50.834;6.752;2022-12-18T04:05:24;38.70;;;15.70;;
22644;SDS011;11489;50.834;6.752;2022-12-18T04:07:53;36.67;;;14.03;;
22644;SDS011;11489;50.834;6.752;2022-12-18T04:10:20;38.83;;;16.17;;
22644;SDS011;11489;50.834;6.752;2022-12-18T04:12:45;37.03;;;14.70;;
22644;SDS011;11489;50.834;6.752;2022-12-18T04:15:12;48.67;;;16.20;;
22644;SDS011;11489;50.834;6.752;2022-12-18T04:17:38;38.60;;;13.43;;
22644;SDS011;11489;50.834;6.752;2022-12-18T04:20:13;36.67;;;14.67;;
22644;SDS011;11489;50.834;6.752;2022-12-18T04:22:38;38.57;;;15.57;;
22644;SDS011;11489;50.834;6.752;2022-12-18T04:25:04;34.53;;;13.83;;
22644;SDS011;11489;50.834;6.752;2022-12-18T04:27:30;43.17;;;15.93;;
22644;SDS011;11489;50.834;6.752;2022-12-18T04:29:56;37.60;;;15.03;;
22644;SDS011;11489;50.834;6.752;2022-12-18T04:32:21;41.10;;;15.30;;
22644;SDS011;11489;50.834;6.752;2022-12-18T04:34:47;40.97;;;16.77;;
22644;SDS011;11489;50.834;6.752;2022-12-18T04:37:13;35.73;;;14.70;;
22644;SDS011;11489;50.834;6.752;2022-12-18T04:39:38;35.60;;;14.13;;
22644;SDS011;11489;50.834;6.752;2022-12-18T04:42:04;37.27;;;14.30;;
22644;SDS011;11489;50.834;6.752;2022-12-18T04:44:32;37.93;;;14.90;;
22644;SDS011;11489;50.834;6.752;2022-12-18T04:46:58;38.93;;;14.93;;
22644;SDS011;11489;50.834;6.752;2022-12-18T04:49:23;37.50;;;14.70;;
22644;SDS011;11489;50.834;6.752;2022-12-18T04:51:49;34.70;;;13.27;;
22644;SDS011;11489;50.834;6.752;2022-12-18T04:54:15;35.80;;;14.47;;
22644;SDS011;11489;50.834;6.752;2022-12-18T04:56:40;33.53;;;13.70;;
22644;SDS011;11489;50.834;6.752;2022-12-18T04:59:06;36.20;;;15.23;;
22644;SDS011;11489;50.834;6.752;2022-12-18T05:01:33;36.00;;;13.90;;
22644;SDS011;11489;50.834;6.752;2022-12-18T05:03:59;30.87;;;12.70;;
22644;SDS011;11489;50.834;6.752;2022-12-18T05:06:24;40.70;;;14.37;;
22644;SDS011;11489;50.834;6.752;2022-12-18T05:08:50;38.97;;;15.23;;
22644;SDS011;11489;50.834;6.752;2022-12-18T05:11:16;37.27;;;14.43;;
22644;SDS011;11489;50.834;6.752;2022-12-18T05:13:42;34.83;;;13.80;;
22644;SDS011;11489;50.834;6.752;2022-12-18T05:16:09;36.27;;;15.13;;
22644;SDS011;11489;50.834;6.752;2022-12-18T05:18:36;36.90;;;14.80;;
22644;SDS011;11489;50.834;6.752;2022-12-18T05:21:02;39.33;;;14.97;;
22644;SDS011;11489;50.834;6.752;2022-12-18T05:23:28;41.73;;;15.47;;
22644;SDS011;11489;50.834;6.752;2022-12-18T05:25:55;40.20;;;15.57;;
22644;SDS011;11489;50.834;6.752;2022-12-18T05:28:23;39.37;;;15.60;;
22644;SDS011;11489;50.834;6.752;2022-12-18T05:30:53;38.17;;;14.93;;
22644;SDS011;11489;50.834;6.752;2022-12-18T05:33:21;41.53;;;16.33;;
22644;SDS011;11489;50.834;6.752;2022-12-18T05:35:52;34.10;;;14.77;;
22644;SDS011;11489;50.834;6.752;2022-12-18T05:38:20;40.57;;;16.00;;
22644;SDS011;11489;50.834;6.752;2022-12-18T05:40:49;36.83;;;15.10;;
22644;SDS011;11489;50.834;6.752;2022-12-18T05:43:16;35.50;;;15.30;;
22644;SDS011;11489;50.834;6.752;2022-12-18T05:45:44;33.97;;;14.83;;
22644;SDS011;11489;50.834;6.752;2022-12-18T05:48:10;39.70;;;16.17;;
22644;SDS011;11489;50.834;6.752;2022-12-18T05:50:38;40.20;;;15.10;;
22644;SDS011;11489;50.834;6.752;2022-12-18T05:53:05;37.87;;;14.73;;
22644;SDS011;11489;50.834;6.752;2022-12-18T05:55:37;36.73;;;16.10;;
22644;SDS011;11489;50.834;6.752;2022-12-18T05:58:05;35.17;;;14.70;;
22644;SDS011;11489;50.834;6.752;2022-12-18T06:00:32;34.47;;;14.40;;
22644;SDS011;11489;50.834;6.752;2022-12-18T06:03:00;39.47;;;16.83;;
22644;SDS011;11489;50.834;6.752;2022-12-18T06:05:26;41.23;;;16.33;;
22644;SDS011;11489;50.834;6.752;2022-12-18T06:07:51;42.17;;;16.67;;
22644;SDS011;11489;50.834;6.752;2022-12-18T06:10:17;42.73;;;15.97;;
22644;SDS011;11489;50.834;6.752;2022-12-18T06:12:43;39.00;;;15.67;;
22644;SDS011;11489;50.834;6.752;2022-12-18T06:15:09;35.37;;;14.93;;
22644;SDS011;11489;50.834;6.752;2022-12-18T06:17:35;36.07;;;14.70;;
22644;SDS011;11489;50.834;6.752;2022-12-18T06:20:00;38.13;;;16.60;;
22644;SDS011;11489;50.834;6.752;2022-12-18T06:22:26;39.07;;;15.47;;
22644;SDS011;11489;50.834;6.752;2022-12-18T06:24:52;41.60;;;16.20;;
22644;SDS011;11489;50.834;6.752;2022-12-18T06:27:18;34.57;;;14.57;;
22644;SDS011;11489;50.834;6.752;2022-12-18T06:29:44;38.93;;;15.53;;
22644;SDS011;11489;50.834;6.752;2022-12-18T06:32:10;35.77;;;15.47;;
22644;SDS011;11489;50.834;6.752;2022-12-18T06:34:39;43.77;;;16.43;;
22644;SDS011;11489;50.834;6.752;2022-12-18T06:37:05;43.47;;;16.43;;
22644;SDS011;11489;50.834;6.752;2022-12-18T06:39:30;41.97;;;15.70;;
22644;SDS011;11489;50.834;6.752;2022-12-18T06:41:56;38.83;;;16.73;;
22644;SDS011;11489;50.834;6.752;2022-12-18T06:44:22;42.60;;;16.13;;
22644;SDS011;11489;50.834;6.752;2022-12-18T06:46:47;38.07;;;16.17;;
22644;SDS011;11489;50.834;6.752;2022-12-18T06:49:13;39.77;;;14.80;;
22644;SDS011;11489;50.834;6.752;2022-12-18T06:51:39;35.53;;;14.43;;
22644;SDS011;11489;50.834;6.752;2022-12-18T06:54:04;39.57;;;15.87;;
22644;SDS011;11489;50.834;6.752;2022-12-18T06:56:30;38.43;;;15.13;;
22644;SDS011;11489;50.834;6.752;2022-12-18T06:58:56;39.20;;;15.93;;
22644;SDS011;11489;50.834;6.752;2022-12-18T07:01:22;43.83;;;16.40;;
22644;SDS011;11489;50.834;6.752;2022-12-18T07:03:51;37.63;;;14.83;;
22644;SDS011;11489;50.834;6.752;2022-12-18T07:06:19;45.00;;;16.37;;
22644;SDS011;11489;50.834;6.752;2022-12-18T07:08:46;37.10;;;15.20;;
22644;SDS011;11489;50.834;6.752;2022-12-18T07:11:12;40.93;;;16.70;;
22644;SDS011;11489;50.834;6.752;2022-12-18T07:13:38;37.40;;;15.47;;
22644;SDS011;11489;50.834;6.752;2022-12-18T07:16:07;44.60;;;17.67;;
22644;SDS011;11489;50.834;6.752;2022-12-18T07:18:35;40.97;;;17.13;;
22644;SDS011;11489;50.834;6.752;2022-12-18T07:21:05;43.57;;;16.77;;
22644;SDS011;11489;50.834;6.752;2022-12-18T07:23:32;40.37;;;16.37;;
22644;SDS011;11489;50.834;6.752;2022-12-18T07:26:03;42.93;;;17.43;;
22644;SDS011;11489;50.834;6.752;2022-12-18T07:28:30;39.17;;;17.07;;
22644;SDS011;11489;50.834;6.752;2022-12-18T07:30:57;40.47;;;15.47;;
22644;SDS011;11489;50.834;6.752;2022-12-18T07:33:24;39.83;;;16.10;;
22644;SDS011;11489;50.834;6.752;2022-12-18T07:35:50;44.60;;;18.00;;
22644;SDS011;11489;50.834;6.752;2022-12-18T07:38:16;43.63;;;18.40;;
22644;SDS011;11489;50.834;6.752;2022-12-18T07:40:41;44.50;;;18.03;;
22644;SDS011;11489;50.834;6.752;2022-12-18T07:43:07;41.73;;;15.30;;
22644;SDS011;11489;50.834;6.752;2022-12-18T07:45:33;42.73;;;16.70;;
22644;SDS011;11489;50.834;6.752;2022-12-18T07:47:58;40.73;;;15.53;;
22644;SDS011;11489;50.834;6.752;2022-12-18T07:50:24;41.53;;;17.60;;
22644;SDS011;11489;50.834;6.752;2022-12-18T07:52:50;42.07;;;17.20;;
22644;SDS011;11489;50.834;6.752;2022-12-18T07:55:15;43.00;;;17.50;;
22644;SDS011;11489;50.834;6.752;2022-12-18T07:57:41;39.27;;;16.87;;
22644;SDS011;11489;50.834;6.752;2022-12-18T08:00:07;42.27;;;18.00;;
22644;SDS011;11489;50.834;6.752;2022-12-18T08:02:33;40.43;;;17.77;;
22644;SDS011;11489;50.834;6.752;2022-12-18T08:04:58;37.93;;;15.43;;
22644;SDS011;11489;50.834;6.752;2022-12-18T08:07:24;40.93;;;16.80;;
22644;SDS011;11489;50.834;6.752;2022-12-18T08:09:50;45.37;;;17.70;;
22644;SDS011;11489;50.834;6.752;2022-12-18T08:12:16;45.43;;;18.40;;
22644;SDS011;11489;50.834;6.752;2022-12-18T08:14:41;49.53;;;18.97;;
22644;SDS011;11489;50.834;6.752;2022-12-18T08:17:07;40.57;;;16.37;;
22644;SDS011;11489;50.834;6.752;2022-12-18T08:19:32;40.33;;;17.63;;
22644;SDS011;11489;50.834;6.752;2022-12-18T08:21:58;43.90;;;17.50;;
22644;SDS011;11489;50.834;6.752;2022-12-18T08:24:24;43.50;;;16.30;;
22644;SDS011;11489;50.834;6.752;2022-12-18T08:26:50;38.90;;;16.53;;
22644;SDS011;11489;50.834;6.752;2022-12-18T08:29:16;36.60;;;16.13;;
22644;SDS011;11489;50.834;6.752;2022-12-18T08:31:42;37.70;;;16.33;;
22644;SDS011;11489;50.834;6.752;2022-12-18T08:34:08;40.60;;;16.57;;
22644;SDS011;11489;50.834;6.752;2022-12-18T08:36:34;42.70;;;16.60;;
22644;SDS011;11489;50.834;6.752;2022-12-18T08:39:00;41.00;;;16.87;;
22644;SDS011;11489;50.834;6.752;2022-12-18T08:41:26;39.73;;;16.97;;
22644;SDS011;11489;50.834;6.752;2022-12-18T08:43:51;38.00;;;15.53;;
22644;SDS011;11489;50.834;6.752;2022-12-18T08:46:37;42.50;;;17.60;;
22644;SDS011;11489;50.834;6.752;2022-12-18T08:49:05;48.27;;;18.37;;
22644;SDS011;11489;50.834;6.752;2022-12-18T08:51:32;36.20;;;15.77;;
22644;SDS011;11489;50.834;6.752;2022-12-18T08:53:58;41.77;;;17.70;;
22644;SDS011;11489;50.834;6.752;2022-12-18T08:56:24;43.50;;;17.40;;
22644;SDS011;11489;50.834;6.752;2022-12-18T08:58:53;39.37;;;17.10;;
22644;SDS011;11489;50.834;6.752;2022-12-18T09:01:20;39.20;;;16.97;;
22644;SDS011;11489;50.834;6.752;2022-12-18T09:03:46;42.10;;;18.10;;
22644;SDS011;11489;50.834;6.752;2022-12-18T09:06:19;38.70;;;17.67;;
22644;SDS011;11489;50.834;6.752;2022-12-18T09:08:46;37.70;;;16.07;;
22644;SDS011;11489;50.834;6.752;2022-12-18T09:11:13;35.63;;;15.80;;
22644;SDS011;11489;50.834;6.752;2022-12-18T09:13:59;36.53;;;15.37;;
22644;SDS011;11489;50.834;6.752;2022-12-18T09:16:26;42.03;;;18.03;;
22644;SDS011;11489;50.834;6.752;2022-12-18T09:18:57;43.13;;;16.70;;
22644;SDS011;11489;50.834;6.752;2022-12-18T09:21:26;40.77;;;17.80;;
22644;SDS011;11489;50.834;6.752;2022-12-18T09:23:56;33.97;;;15.60;;
22644;SDS011;11489;50.834;6.752;2022-12-18T09:26:23;37.57;;;17.00;;
22644;SDS011;11489;50.834;6.752;2022-12-18T09:28:50;38.17;;;16.63;;
22644;SDS011;11489;50.834;6.752;2022-12-18T09:31:17;44.37;;;17.43;;
22644;SDS011;11489;50.834;6.752;2022-12-18T09:33:45;42.60;;;18.23;;
22644;SDS011;11489;50.834;6.752;2022-12-18T09:36:12;40.50;;;17.93;;
22644;SDS011;11489;50.834;6.752;2022-12-18T09:38:40;41.43;;;18.17;;
22644;SDS011;11489;50.834;6.752;2022-12-18T09:41:14;38.57;;;17.47;;
22644;SDS011;11489;50.834;6.752;2022-12-18T09:43:49;40.87;;;17.43;;
22644;SDS011;11489;50.834;6.752;2022-12-18T09:46:26;42.17;;;18.20;;
22644;SDS011;11489;50.834;6.752;2022-12-18T09:48:59;34.73;;;16.40;;
22644;SDS011;11489;50.834;6.752;2022-12-18T09:51:49;38.87;;;17.80;;
22644;SDS011;11489;50.834;6.752;2022-12-18T09:54:38;38.00;;;16.77;;
22644;SDS011;11489;50.834;6.752;2022-12-18T09:57:05;34.20;;;16.23;;
22644;SDS011;11489;50.834;6.752;2022-12-18T09:59:35;40.33;;;16.60;;
22644;SDS011;11489;50.834;6.752;2022-12-18T10:02:19;39.47;;;17.53;;
22644;SDS011;11489;50.834;6.752;2022-12-18T10:04:56;34.27;;;14.97;;
22644;SDS011;11489;50.834;6.752;2022-12-18T10:13:20;37.07;;;16.07;;
22644;SDS011;11489;50.834;6.752;2022-12-18T10:18:55;36.23;;;15.37;;
22644;SDS011;11489;50.834;6.752;2022-12-18T10:21:34;44.50;;;22.20;;
22644;SDS011;11489;50.834;6.752;2022-12-18T10:24:18;40.80;;;18.23;;
22644;SDS011;11489;50.834;6.752;2022-12-18T10:26:51;35.43;;;16.70;;
22644;SDS011;11489;50.834;6.752;2022-12-18T10:29:18;40.37;;;17.37;;
22644;SDS011;11489;50.834;6.752;2022-12-18T10:31:44;34.90;;;17.07;;
22644;SDS011;11489;50.834;6.752;2022-12-18T10:34:10;39.70;;;18.03;;
22644;SDS011;11489;50.834;6.752;2022-12-18T10:36:37;36.90;;;16.53;;
22644;SDS011;11489;50.834;6.752;2022-12-18T10:39:14;29.33;;;15.00;;
22644;SDS011;11489;50.834;6.752;2022-12-18T10:41:42;36.73;;;15.73;;
22644;SDS011;11489;50.834;6.752;2022-12-18T10:44:18;37.50;;;16.07;;
22644;SDS011;11489;50.834;6.752;2022-12-18T10:46:49;38.00;;;16.60;;
22644;SDS011;11489;50.834;6.752;2022-12-18T10:49:19;34.50;;;16.00;;
22644;SDS011;11489;50.834;6.752;2022-12-18T10:51:50;32.27;;;14.63;;
22644;SDS011;11489;50.834;6.752;2022-12-18T10:54:28;31.00;;;16.37;;
22644;SDS011;11489;50.834;6.752;2022-12-18T10:57:13;36.97;;;17.53;;
22644;SDS011;11489;50.834;6.752;2022-12-18T10:59:55;35.13;;;17.17;;
22644;SDS011;11489;50.834;6.752;2022-12-18T11:02:26;30.13;;;15.30;;
22644;SDS011;11489;50.834;6.752;2022-12-18T11:04:59;39.03;;;17.13;;
22644;SDS011;11489;50.834;6.752;2022-12-18T11:07:25;33.17;;;15.83;;
22644;SDS011;11489;50.834;6.752;2022-12-18T11:10:15;34.17;;;16.50;;
22644;SDS011;11489;50.834;6.752;2022-12-18T11:12:44;33.20;;;15.83;;
22644;SDS011;11489;50.834;6.752;2022-12-18T11:15:18;35.37;;;16.37;;
22644;SDS011;11489;50.834;6.752;2022-12-18T11:17:47;31.73;;;14.97;;
22644;SDS011;11489;50.834;6.752;2022-12-18T11:23:00;31.97;;;15.80;;
22644;SDS011;11489;50.834;6.752;2022-12-18T11:25:29;34.10;;;15.40;;
22644;SDS011;11489;50.834;6.752;2022-12-18T11:27:59;36.37;;;17.70;;
22644;SDS011;11489;50.834;6.752;2022-12-18T11:33:13;33.47;;;15.23;;
22644;SDS011;11489;50.834;6.752;2022-12-18T11:43:41;32.07;;;15.63;;
22644;SDS011;11489;50.834;6.752;2022-12-18T11:46:36;37.50;;;18.07;;
22644;SDS011;11489;50.834;6.752;2022-12-18T11:49:10;34.73;;;17.00;;
22644;SDS011;11489;50.834;6.752;2022-12-18T11:51:49;34.80;;;15.97;;
22644;SDS011;11489;50.834;6.752;2022-12-18T11:54:20;36.93;;;16.73;;
22644;SDS011;11489;50.834;6.752;2022-12-18T11:56:56;36.60;;;16.50;;
22644;SDS011;11489;50.834;6.752;2022-12-18T11:59:33;38.13;;;17.10;;
22644;SDS011;11489;50.834;6.752;2022-12-18T12:07:54;31.20;;;15.80;;
22644;SDS011;11489;50.834;6.752;2022-12-18T12:12:58;30.23;;;15.50;;
22644;SDS011;11489;50.834;6.752;2022-12-18T12:18:20;36.00;;;16.83;;
22644;SDS011;11489;50.834;6.752;2022-12-18T12:24:07;33.53;;;16.60;;
22644;SDS011;11489;50.834;6.752;2022-12-18T12:26:49;35.77;;;16.43;;
22644;SDS011;11489;50.834;6.752;2022-12-18T12:32:38;36.30;;;16.13;;
22644;SDS011;11489;50.834;6.752;2022-12-18T12:34:45;33.63;;;17.03;;
22644;SDS011;11489;50.834;6.752;2022-12-18T12:37:25;37.37;;;16.57;;
22644;SDS011;11489;50.834;6.752;2022-12-18T12:40:11;37.23;;;17.13;;
22644;SDS011;11489;50.834;6.752;2022-12-18T12:42:43;35.80;;;17.10;;
22644;SDS011;11489;50.834;6.752;2022-12-18T12:45:40;37.43;;;17.03;;
22644;SDS011;11489;50.834;6.752;2022-12-18T12:48:14;34.20;;;17.20;;
22644;SDS011;11489;50.834;6.752;2022-12-18T12:50:45;34.07;;;16.07;;
22644;SDS011;11489;50.834;6.752;2022-12-18T12:53:15;34.50;;;16.20;;
22644;SDS011;11489;50.834;6.752;2022-12-18T12:55:55;36.80;;;16.80;;
22644;SDS011;11489;50.834;6.752;2022-12-18T12:58:34;40.87;;;17.67;;
22644;SDS011;11489;50.834;6.752;2022-12-18T13:04:20;39.03;;;16.70;;
22644;SDS011;11489;50.834;6.752;2022-12-18T13:07:01;32.70;;;16.07;;
22644;SDS011;11489;50.834;6.752;2022-12-18T13:09:36;37.47;;;16.90;;
22644;SDS011;11489;50.834;6.752;2022-12-18T13:12:55;34.27;;;16.27;;
22644;SDS011;11489;50.834;6.752;2022-12-18T13:20:42;38.43;;;17.93;;
22644;SDS011;11489;50.834;6.752;2022-12-18T13:25:51;41.10;;;18.17;;
22644;SDS011;11489;50.834;6.752;2022-12-18T13:36:45;38.50;;;17.33;;
22644;SDS011;11489;50.834;6.752;2022-12-18T13:41:47;35.87;;;17.60;;
22644;SDS011;11489;50.834;6.752;2022-12-18T13:44:34;35.83;;;16.73;;
22644;SDS011;11489;50.834;6.752;2022-12-18T13:47:05;38.23;;;17.37;;
22644;SDS011;11489;50.834;6.752;2022-12-18T13:49:53;37.63;;;17.27;;
22644;SDS011;11489;50.834;6.752;2022-12-18T13:52:22;39.70;;;17.67;;
22644;SDS011;11489;50.834;6.752;2022-12-18T13:54:59;41.17;;;17.57;;
22644;SDS011;11489;50.834;6.752;2022-12-18T13:57:28;37.00;;;17.50;;
22644;SDS011;11489;50.834;6.752;2022-12-18T14:00:00;38.33;;;16.83;;
22644;SDS011;11489;50.834;6.752;2022-12-18T14:02:53;37.80;;;16.97;;
22644;SDS011;11489;50.834;6.752;2022-12-18T14:05:29;34.87;;;16.90;;
22644;SDS011;11489;50.834;6.752;2022-12-18T14:08:01;39.33;;;19.07;;
22644;SDS011;11489;50.834;6.752;2022-12-18T14:10:31;38.77;;;18.33;;
22644;SDS011;11489;50.834;6.752;2022-12-18T14:12:57;41.10;;;17.93;;
22644;SDS011;11489;50.834;6.752;2022-12-18T14:15:31;40.70;;;17.47;;
22644;SDS011;11489;50.834;6.752;2022-12-18T14:18:03;37.73;;;17.53;;
22644;SDS011;11489;50.834;6.752;2022-12-18T14:20:58;36.93;;;18.00;;
22644;SDS011;11489;50.834;6.752;2022-12-18T14:23:40;45.83;;;19.13;;
22644;SDS011;11489;50.834;6.752;2022-12-18T14:26:26;39.80;;;17.90;;
22644;SDS011;11489;50.834;6.752;2022-12-18T14:28:58;42.00;;;19.40;;
22644;SDS011;11489;50.834;6.752;2022-12-18T14:31:43;39.00;;;18.13;;
22644;SDS011;11489;50.834;6.752;2022-12-18T14:34:14;41.60;;;18.70;;
22644;SDS011;11489;50.834;6.752;2022-12-18T14:36:53;42.87;;;19.27;;
22644;SDS011;11489;50.834;6.752;2022-12-18T14:39:21;40.80;;;17.90;;
22644;SDS011;11489;50.834;6.752;2022-12-18T14:41:48;45.73;;;20.37;;
22644;SDS011;11489;50.834;6.752;2022-12-18T14:44:14;43.13;;;18.63;;
22644;SDS011;11489;50.834;6.752;2022-12-18T14:46:43;47.33;;;18.33;;
22644;SDS011;11489;50.834;6.752;2022-12-18T14:49:27;44.90;;;19.40;;
22644;SDS011;11489;50.834;6.752;2022-12-18T14:51:57;45.97;;;20.03;;
22644;SDS011;11489;50.834;6.752;2022-12-18T14:54:28;43.40;;;19.53;;
22644;SDS011;11489;50.834;6.752;2022-12-18T14:57:04;43.03;;;19.70;;
22644;SDS011;11489;50.834;6.752;2022-12-18T14:59:46;42.53;;;18.40;;
22644;SDS011;11489;50.834;6.752;2022-12-18T15:05:04;47.47;;;20.33;;
22644;SDS011;11489;50.834;6.752;2022-12-18T15:07:47;47.03;;;20.27;;
22644;SDS011;11489;50.834;6.752;2022-12-18T15:10:16;43.13;;;19.93;;
22644;SDS011;11489;50.834;6.752;2022-12-18T15:20:39;42.07;;;19.23;;
22644;SDS011;11489;50.834;6.752;2022-12-18T15:25:56;44.13;;;20.17;;
22644;SDS011;11489;50.834;6.752;2022-12-18T15:28:36;40.20;;;18.90;;
22644;SDS011;11489;50.834;6.752;2022-12-18T15:33:40;48.57;;;19.10;;
22644;SDS011;11489;50.834;6.752;2022-12-18T15:36:15;44.87;;;19.73;;
22644;SDS011;11489;50.834;6.752;2022-12-18T15:38:45;44.63;;;20.23;;
22644;SDS011;11489;50.834;6.752;2022-12-18T15:41:15;44.37;;;19.50;;
22644;SDS011;11489;50.834;6.752;2022-12-18T15:43:43;41.00;;;18.87;;
22644;SDS011;11489;50.834;6.752;2022-12-18T15:46:11;43.97;;;19.63;;
22644;SDS011;11489;50.834;6.752;2022-12-18T15:48:42;43.47;;;18.53;;
22644;SDS011;11489;50.834;6.752;2022-12-18T15:51:16;38.80;;;17.73;;
22644;SDS011;11489;50.834;6.752;2022-12-18T15:53:47;38.63;;;16.97;;
22644;SDS011;11489;50.834;6.752;2022-12-18T15:56:15;44.70;;;18.73;;
22644;SDS011;11489;50.834;6.752;2022-12-18T15:59:00;39.40;;;17.13;;
22644;SDS011;11489;50.834;6.752;2022-12-18T16:01:27;40.27;;;17.43;;
22644;SDS011;11489;50.834;6.752;2022-12-18T16:03:55;37.67;;;16.23;;
22644;SDS011;11489;50.834;6.752;2022-12-18T16:06:21;36.60;;;17.27;;
22644;SDS011;11489;50.834;6.752;2022-12-18T16:08:47;35.73;;;16.27;;
22644;SDS011;11489;50.834;6.752;2022-12-18T16:11:25;37.30;;;16.90;;
22644;SDS011;11489;50.834;6.752;2022-12-18T16:16:48;38.20;;;17.43;;
22644;SDS011;11489;50.834;6.752;2022-12-18T16:19:15;35.70;;;16.63;;
22644;SDS011;11489;50.834;6.752;2022-12-18T16:21:42;41.37;;;17.57;;
22644;SDS011;11489;50.834;6.752;2022-12-18T16:24:11;41.97;;;18.07;;